sensor_id;sensor_type;location;lat;lon;timestamp;P1;durP1;ratioP1;P2;durP2;ratioP2
13704;SDS011;6924;52.122;9.952;2022-09-27T00:01:44;0.40;;;0.40;;
13704;SDS011;6924;52.122;9.952;2022-09-27T00:04:10;0.80;;;0.50;;
13704;SDS011;6924;52.122;9.952;2022-09-27T00:06:38;0.30;;;0.30;;
13704;SDS011;6924;52.122;9.952;2022-09-27T00:09:05;0.40;;;0.40;;
13704;SDS011;6924;52.122;9.952;2022-09-27T00:11:32;0.30;;;0.30;;
13704;SDS011;6924;52.122;9.952;2022-09-27T00:14:00;1.33;;;0.30;;
13704;SDS011;6924;52.122;9.952;2022-09-27T00:16:28;0.30;;;0.30;;
13704;SDS011;6924;52.122;9.952;2022-09-27T00:18:57;0.37;;;0.37;;
13704;SDS011;6924;52.122;9.952;2022-09-27T00:21:24;0.87;;;0.40;;
13704;SDS011;6924;52.122;9.952;2022-09-27T00:23:51;0.80;;;0.50;;
13704;SDS011;6924;52.122;9.952;2022-09-27T00:26:18;0.50;;;0.50;;
13704;SDS011;6924;52.122;9.952;2022-09-27T00:28:44;0.50;;;0.50;;
13704;SDS011;6924;52.122;9.952;2022-09-27T00:31:13;0.40;;;0.40;;
13704;SDS011;6924;52.122;9.952;2022-09-27T00:33:44;1.23;;;0.43;;
13704;SDS011;6924;52.122;9.952;2022-09-27T00:36:11;0.47;;;0.43;;
13704;SDS011;6924;52.122;9.952;2022-09-27T00:38:38;0.40;;;0.40;;
13704;SDS011;6924;52.122;9.952;2022-09-27T00:41:07;0.53;;;0.50;;
13704;SDS011;6924;52.122;9.952;2022-09-27T00:43:42;0.40;;;0.40;;
13704;SDS011;6924;52.122;9.952;2022-09-27T00:46:10;0.43;;;0.43;;
13704;SDS011;6924;52.122;9.952;2022-09-27T00:48:42;0.53;;;0.50;;
13704;SDS011;6924;52.122;9.952;2022-09-27T00:51:08;0.50;;;0.50;;
13704;SDS011;6924;52.122;9.952;2022-09-27T00:53:36;0.40;;;0.40;;
13704;SDS011;6924;52.122;9.952;2022-09-27T00:56:09;0.40;;;0.37;;
13704;SDS011;6924;52.122;9.952;2022-09-27T00:58:41;0.60;;;0.60;;
13704;SDS011;6924;52.122;9.952;2022-09-27T01:01:11;0.50;;;0.50;;
13704;SDS011;6924;52.122;9.952;2022-09-27T01:03:39;0.40;;;0.40;;
13704;SDS011;6924;52.122;9.952;2022-09-27T01:06:12;0.50;;;0.50;;
13704;SDS011;6924;52.122;9.952;2022-09-27T01:08:40;0.30;;;0.30;;
13704;SDS011;6924;52.122;9.952;2022-09-27T01:11:14;0.40;;;0.30;;
13704;SDS011;6924;52.122;9.952;2022-09-27T01:13:52;0.40;;;0.40;;
13704;SDS011;6924;52.122;9.952;2022-09-27T01:16:34;0.30;;;0.30;;
13704;SDS011;6924;52.122;9.952;2022-09-27T01:19:09;0.37;;;0.30;;
13704;SDS011;6924;52.122;9.952;2022-09-27T01:21:49;0.60;;;0.50;;
13704;SDS011;6924;52.122;9.952;2022-09-27T01:24:23;0.30;;;0.30;;
13704;SDS011;6924;52.122;9.952;2022-09-27T01:27:13;0.30;;;0.30;;
13704;SDS011;6924;52.122;9.952;2022-09-27T01:30:20;0.40;;;0.40;;
13704;SDS011;6924;52.122;9.952;2022-09-27T01:32:50;0.67;;;0.67;;
13704;SDS011;6924;52.122;9.952;2022-09-27T01:35:24;1.23;;;0.40;;
13704;SDS011;6924;52.122;9.952;2022-09-27T01:38:01;0.30;;;0.30;;
13704;SDS011;6924;52.122;9.952;2022-09-27T01:40:38;0.30;;;0.30;;
13704;SDS011;6924;52.122;9.952;2022-09-27T01:43:12;0.40;;;0.40;;
13704;SDS011;6924;52.122;9.952;2022-09-27T01:45:44;0.37;;;0.37;;
13704;SDS011;6924;52.122;9.952;2022-09-27T01:48:19;0.40;;;0.40;;
13704;SDS011;6924;52.122;9.952;2022-09-27T01:50:48;0.60;;;0.60;;
13704;SDS011;6924;52.122;9.952;2022-09-27T01:53:20;0.40;;;0.40;;
13704;SDS011;6924;52.122;9.952;2022-09-27T01:55:48;0.30;;;0.30;;
13704;SDS011;6924;52.122;9.952;2022-09-27T01:58:19;0.30;;;0.30;;
13704;SDS011;6924;52.122;9.952;2022-09-27T02:00:50;0.97;;;0.30;;
13704;SDS011;6924;52.122;9.952;2022-09-27T02:03:19;0.53;;;0.50;;
13704;SDS011;6924;52.122;9.952;2022-09-27T02:05:51;0.50;;;0.40;;
13704;SDS011;6924;52.122;9.952;2022-09-27T02:08:22;0.40;;;0.40;;
13704;SDS011;6924;52.122;9.952;2022-09-27T02:10:54;0.77;;;0.50;;
13704;SDS011;6924;52.122;9.952;2022-09-27T02:13:26;0.80;;;0.40;;
13704;SDS011;6924;52.122;9.952;2022-09-27T02:16:04;1.20;;;0.50;;
13704;SDS011;6924;52.122;9.952;2022-09-27T02:18:46;0.60;;;0.60;;
13704;SDS011;6924;52.122;9.952;2022-09-27T02:21:20;1.43;;;0.70;;
13704;SDS011;6924;52.122;9.952;2022-09-27T02:23:50;0.60;;;0.60;;
13704;SDS011;6924;52.122;9.952;2022-09-27T02:26:21;1.27;;;0.63;;
13704;SDS011;6924;52.122;9.952;2022-09-27T02:28:54;0.50;;;0.50;;
13704;SDS011;6924;52.122;9.952;2022-09-27T02:31:25;1.17;;;0.80;;
13704;SDS011;6924;52.122;9.952;2022-09-27T02:33:52;1.40;;;0.70;;
13704;SDS011;6924;52.122;9.952;2022-09-27T02:36:23;0.67;;;0.67;;
13704;SDS011;6924;52.122;9.952;2022-09-27T02:38:50;1.60;;;0.80;;
13704;SDS011;6924;52.122;9.952;2022-09-27T02:41:17;1.27;;;0.73;;
13704;SDS011;6924;52.122;9.952;2022-09-27T02:43:46;1.40;;;0.70;;
13704;SDS011;6924;52.122;9.952;2022-09-27T02:46:19;1.20;;;1.00;;
13704;SDS011;6924;52.122;9.952;2022-09-27T02:49:00;1.73;;;1.10;;
13704;SDS011;6924;52.122;9.952;2022-09-27T02:51:41;1.13;;;1.03;;
13704;SDS011;6924;52.122;9.952;2022-09-27T02:54:17;1.83;;;0.97;;
13704;SDS011;6924;52.122;9.952;2022-09-27T02:56:52;4.30;;;1.43;;
13704;SDS011;6924;52.122;9.952;2022-09-27T02:59:28;1.27;;;0.90;;
13704;SDS011;6924;52.122;9.952;2022-09-27T03:02:07;1.10;;;1.00;;
13704;SDS011;6924;52.122;9.952;2022-09-27T03:04:39;1.63;;;0.77;;
13704;SDS011;6924;52.122;9.952;2022-09-27T03:07:11;2.63;;;1.03;;
13704;SDS011;6924;52.122;9.952;2022-09-27T03:09:40;2.07;;;1.10;;
13704;SDS011;6924;52.122;9.952;2022-09-27T03:12:07;1.77;;;0.90;;
13704;SDS011;6924;52.122;9.952;2022-09-27T03:14:33;1.50;;;1.40;;
13704;SDS011;6924;52.122;9.952;2022-09-27T03:17:00;1.10;;;1.00;;
13704;SDS011;6924;52.122;9.952;2022-09-27T03:19:27;1.47;;;1.10;;
13704;SDS011;6924;52.122;9.952;2022-09-27T03:21:54;1.50;;;1.03;;
13704;SDS011;6924;52.122;9.952;2022-09-27T03:24:20;1.67;;;1.03;;
13704;SDS011;6924;52.122;9.952;2022-09-27T03:26:46;1.80;;;1.60;;
13704;SDS011;6924;52.122;9.952;2022-09-27T03:29:13;2.20;;;1.00;;
13704;SDS011;6924;52.122;9.952;2022-09-27T03:31:40;1.50;;;1.10;;
13704;SDS011;6924;52.122;9.952;2022-09-27T03:34:07;2.10;;;1.50;;
13704;SDS011;6924;52.122;9.952;2022-09-27T03:36:34;4.93;;;1.30;;
13704;SDS011;6924;52.122;9.952;2022-09-27T03:39:01;1.37;;;1.17;;
13704;SDS011;6924;52.122;9.952;2022-09-27T03:41:27;3.77;;;1.13;;
13704;SDS011;6924;52.122;9.952;2022-09-27T03:43:54;3.07;;;1.47;;
13704;SDS011;6924;52.122;9.952;2022-09-27T03:46:21;4.33;;;1.63;;
13704;SDS011;6924;52.122;9.952;2022-09-27T03:48:48;3.20;;;1.47;;
13704;SDS011;6924;52.122;9.952;2022-09-27T03:51:14;2.53;;;1.27;;
13704;SDS011;6924;52.122;9.952;2022-09-27T03:53:42;3.90;;;1.60;;
13704;SDS011;6924;52.122;9.952;2022-09-27T03:56:09;2.37;;;1.23;;
13704;SDS011;6924;52.122;9.952;2022-09-27T03:58:35;1.73;;;1.17;;
13704;SDS011;6924;52.122;9.952;2022-09-27T04:01:01;2.37;;;1.10;;
13704;SDS011;6924;52.122;9.952;2022-09-27T04:03:28;1.50;;;1.40;;
13704;SDS011;6924;52.122;9.952;2022-09-27T04:05:54;1.60;;;1.50;;
13704;SDS011;6924;52.122;9.952;2022-09-27T04:08:20;1.83;;;1.30;;
13704;SDS011;6924;52.122;9.952;2022-09-27T04:10:49;1.63;;;1.43;;
13704;SDS011;6924;52.122;9.952;2022-09-27T04:13:15;3.27;;;1.53;;
13704;SDS011;6924;52.122;9.952;2022-09-27T04:15:41;2.33;;;1.73;;
13704;SDS011;6924;52.122;9.952;2022-09-27T04:18:09;2.00;;;1.27;;
13704;SDS011;6924;52.122;9.952;2022-09-27T04:20:35;12.00;;;1.73;;
13704;SDS011;6924;52.122;9.952;2022-09-27T04:23:02;1.40;;;1.30;;
13704;SDS011;6924;52.122;9.952;2022-09-27T04:25:29;1.93;;;1.07;;
13704;SDS011;6924;52.122;9.952;2022-09-27T04:27:58;1.50;;;1.40;;
13704;SDS011;6924;52.122;9.952;2022-09-27T04:30:25;1.43;;;1.33;;
13704;SDS011;6924;52.122;9.952;2022-09-27T04:32:54;1.83;;;1.20;;
13704;SDS011;6924;52.122;9.952;2022-09-27T04:35:20;1.27;;;1.17;;
13704;SDS011;6924;52.122;9.952;2022-09-27T04:38:01;1.93;;;1.63;;
13704;SDS011;6924;52.122;9.952;2022-09-27T04:40:28;2.23;;;1.40;;
13704;SDS011;6924;52.122;9.952;2022-09-27T04:42:54;1.60;;;1.50;;
13704;SDS011;6924;52.122;9.952;2022-09-27T04:45:22;1.20;;;1.10;;
13704;SDS011;6924;52.122;9.952;2022-09-27T04:47:49;1.97;;;1.10;;
13704;SDS011;6924;52.122;9.952;2022-09-27T04:50:16;1.97;;;1.23;;
13704;SDS011;6924;52.122;9.952;2022-09-27T04:52:44;0.97;;;0.80;;
13704;SDS011;6924;52.122;9.952;2022-09-27T04:55:15;0.83;;;0.80;;
13704;SDS011;6924;52.122;9.952;2022-09-27T04:57:41;2.07;;;0.70;;
13704;SDS011;6924;52.122;9.952;2022-09-27T05:00:08;0.50;;;0.50;;
13704;SDS011;6924;52.122;9.952;2022-09-27T05:02:37;1.00;;;0.60;;
13704;SDS011;6924;52.122;9.952;2022-09-27T05:05:04;0.97;;;0.60;;
13704;SDS011;6924;52.122;9.952;2022-09-27T05:07:32;1.33;;;0.80;;
13704;SDS011;6924;52.122;9.952;2022-09-27T05:09:59;1.03;;;0.53;;
13704;SDS011;6924;52.122;9.952;2022-09-27T05:12:25;0.43;;;0.40;;
13704;SDS011;6924;52.122;9.952;2022-09-27T05:14:52;1.27;;;0.73;;
13704;SDS011;6924;52.122;9.952;2022-09-27T05:17:18;0.93;;;0.70;;
13704;SDS011;6924;52.122;9.952;2022-09-27T05:19:47;5.47;;;1.10;;
13704;SDS011;6924;52.122;9.952;2022-09-27T05:22:14;1.10;;;1.00;;
13704;SDS011;6924;52.122;9.952;2022-09-27T05:24:40;0.97;;;0.90;;
13704;SDS011;6924;52.122;9.952;2022-09-27T05:27:07;1.73;;;1.00;;
13704;SDS011;6924;52.122;9.952;2022-09-27T05:29:37;1.20;;;1.10;;
13704;SDS011;6924;52.122;9.952;2022-09-27T05:32:03;1.77;;;1.10;;
13704;SDS011;6924;52.122;9.952;2022-09-27T05:34:30;2.97;;;1.27;;
13704;SDS011;6924;52.122;9.952;2022-09-27T05:36:57;1.10;;;1.00;;
13704;SDS011;6924;52.122;9.952;2022-09-27T05:39:24;1.73;;;1.00;;
13704;SDS011;6924;52.122;9.952;2022-09-27T05:41:50;1.50;;;1.40;;
13704;SDS011;6924;52.122;9.952;2022-09-27T05:44:19;1.00;;;1.00;;
13704;SDS011;6924;52.122;9.952;2022-09-27T05:46:46;0.90;;;0.90;;
13704;SDS011;6924;52.122;9.952;2022-09-27T05:49:12;0.70;;;0.70;;
13704;SDS011;6924;52.122;9.952;2022-09-27T05:51:38;2.17;;;1.10;;
13704;SDS011;6924;52.122;9.952;2022-09-27T05:54:06;1.00;;;0.87;;
13704;SDS011;6924;52.122;9.952;2022-09-27T05:56:33;1.07;;;0.90;;
13704;SDS011;6924;52.122;9.952;2022-09-27T05:58:59;0.87;;;0.80;;
13704;SDS011;6924;52.122;9.952;2022-09-27T06:01:25;0.63;;;0.63;;
13704;SDS011;6924;52.122;9.952;2022-09-27T06:03:52;2.50;;;0.70;;
13704;SDS011;6924;52.122;9.952;2022-09-27T06:06:19;1.10;;;0.67;;
13704;SDS011;6924;52.122;9.952;2022-09-27T06:08:46;0.83;;;0.77;;
13704;SDS011;6924;52.122;9.952;2022-09-27T06:11:14;1.70;;;0.70;;
13704;SDS011;6924;52.122;9.952;2022-09-27T06:13:40;6.67;;;6.17;;
13704;SDS011;6924;52.122;9.952;2022-09-27T06:16:08;2.20;;;2.00;;
13704;SDS011;6924;52.122;9.952;2022-09-27T06:18:36;2.00;;;1.00;;
13704;SDS011;6924;52.122;9.952;2022-09-27T06:21:03;3.53;;;1.50;;
13704;SDS011;6924;52.122;9.952;2022-09-27T06:23:31;0.70;;;0.70;;
13704;SDS011;6924;52.122;9.952;2022-09-27T06:25:59;1.70;;;0.90;;
13704;SDS011;6924;52.122;9.952;2022-09-27T06:28:28;1.60;;;1.07;;
13704;SDS011;6924;52.122;9.952;2022-09-27T06:30:54;2.10;;;1.00;;
13704;SDS011;6924;52.122;9.952;2022-09-27T06:33:21;1.47;;;1.37;;
13704;SDS011;6924;52.122;9.952;2022-09-27T06:35:49;3.77;;;1.10;;
13704;SDS011;6924;52.122;9.952;2022-09-27T06:38:17;2.93;;;1.60;;
13704;SDS011;6924;52.122;9.952;2022-09-27T06:40:45;1.00;;;0.80;;
13704;SDS011;6924;52.122;9.952;2022-09-27T06:43:12;2.23;;;2.03;;
13704;SDS011;6924;52.122;9.952;2022-09-27T06:45:41;0.77;;;0.70;;
13704;SDS011;6924;52.122;9.952;2022-09-27T06:48:09;2.27;;;1.50;;
13704;SDS011;6924;52.122;9.952;2022-09-27T06:50:37;4.00;;;1.13;;
13704;SDS011;6924;52.122;9.952;2022-09-27T06:53:04;1.27;;;1.10;;
13704;SDS011;6924;52.122;9.952;2022-09-27T06:55:32;1.50;;;1.40;;
13704;SDS011;6924;52.122;9.952;2022-09-27T06:57:59;1.93;;;1.17;;
13704;SDS011;6924;52.122;9.952;2022-09-27T07:00:45;1.23;;;1.13;;
13704;SDS011;6924;52.122;9.952;2022-09-27T07:03:14;2.37;;;1.20;;
13704;SDS011;6924;52.122;9.952;2022-09-27T07:05:40;3.27;;;2.00;;
13704;SDS011;6924;52.122;9.952;2022-09-27T07:08:07;2.93;;;1.97;;
13704;SDS011;6924;52.122;9.952;2022-09-27T07:10:36;2.70;;;1.97;;
13704;SDS011;6924;52.122;9.952;2022-09-27T07:13:04;1.30;;;1.20;;
13704;SDS011;6924;52.122;9.952;2022-09-27T07:15:31;1.53;;;1.43;;
13704;SDS011;6924;52.122;9.952;2022-09-27T07:18:02;2.03;;;0.80;;
13704;SDS011;6924;52.122;9.952;2022-09-27T07:20:30;1.67;;;0.90;;
13704;SDS011;6924;52.122;9.952;2022-09-27T07:22:57;3.80;;;0.73;;
13704;SDS011;6924;52.122;9.952;2022-09-27T07:25:24;1.43;;;0.90;;
13704;SDS011;6924;52.122;9.952;2022-09-27T07:27:51;1.00;;;1.00;;
13704;SDS011;6924;52.122;9.952;2022-09-27T07:30:17;4.73;;;1.50;;
13704;SDS011;6924;52.122;9.952;2022-09-27T07:32:45;1.00;;;0.83;;
13704;SDS011;6924;52.122;9.952;2022-09-27T07:35:13;0.97;;;0.80;;
13704;SDS011;6924;52.122;9.952;2022-09-27T07:37:40;1.80;;;0.80;;
13704;SDS011;6924;52.122;9.952;2022-09-27T07:40:07;0.67;;;0.60;;
13704;SDS011;6924;52.122;9.952;2022-09-27T07:42:35;0.90;;;0.90;;
13704;SDS011;6924;52.122;9.952;2022-09-27T07:45:03;1.30;;;0.87;;
13704;SDS011;6924;52.122;9.952;2022-09-27T07:47:31;1.17;;;0.77;;
13704;SDS011;6924;52.122;9.952;2022-09-27T07:49:57;1.80;;;0.70;;
13704;SDS011;6924;52.122;9.952;2022-09-27T07:52:25;1.63;;;1.07;;
13704;SDS011;6924;52.122;9.952;2022-09-27T07:54:51;1.20;;;0.70;;
13704;SDS011;6924;52.122;9.952;2022-09-27T07:57:20;1.37;;;0.80;;
13704;SDS011;6924;52.122;9.952;2022-09-27T07:59:47;0.80;;;0.80;;
13704;SDS011;6924;52.122;9.952;2022-09-27T08:02:14;1.37;;;0.90;;
13704;SDS011;6924;52.122;9.952;2022-09-27T08:04:41;0.97;;;0.90;;
13704;SDS011;6924;52.122;9.952;2022-09-27T08:07:10;0.80;;;0.80;;
13704;SDS011;6924;52.122;9.952;2022-09-27T08:09:38;0.80;;;0.70;;
13704;SDS011;6924;52.122;9.952;2022-09-27T08:12:05;0.87;;;0.70;;
13704;SDS011;6924;52.122;9.952;2022-09-27T08:14:32;1.07;;;0.80;;
13704;SDS011;6924;52.122;9.952;2022-09-27T08:16:59;2.13;;;1.33;;
13704;SDS011;6924;52.122;9.952;2022-09-27T08:19:25;1.97;;;1.10;;
13704;SDS011;6924;52.122;9.952;2022-09-27T08:21:52;1.90;;;1.20;;
13704;SDS011;6924;52.122;9.952;2022-09-27T08:24:19;1.53;;;1.27;;
13704;SDS011;6924;52.122;9.952;2022-09-27T08:26:47;1.50;;;1.40;;
13704;SDS011;6924;52.122;9.952;2022-09-27T08:29:14;1.77;;;1.40;;
13704;SDS011;6924;52.122;9.952;2022-09-27T08:31:41;1.13;;;1.03;;
13704;SDS011;6924;52.122;9.952;2022-09-27T08:34:07;1.70;;;1.17;;
13704;SDS011;6924;52.122;9.952;2022-09-27T08:36:34;1.97;;;1.50;;
13704;SDS011;6924;52.122;9.952;2022-09-27T08:39:01;1.23;;;1.03;;
13704;SDS011;6924;52.122;9.952;2022-09-27T08:41:30;1.00;;;1.00;;
13704;SDS011;6924;52.122;9.952;2022-09-27T08:44:08;2.43;;;0.90;;
13704;SDS011;6924;52.122;9.952;2022-09-27T08:46:42;0.80;;;0.80;;
13704;SDS011;6924;52.122;9.952;2022-09-27T08:49:18;0.70;;;0.63;;
13704;SDS011;6924;52.122;9.952;2022-09-27T08:51:49;3.30;;;0.97;;
13704;SDS011;6924;52.122;9.952;2022-09-27T08:54:19;1.93;;;0.90;;
13704;SDS011;6924;52.122;9.952;2022-09-27T08:56:49;1.80;;;0.73;;
13704;SDS011;6924;52.122;9.952;2022-09-27T08:59:19;0.83;;;0.70;;
13704;SDS011;6924;52.122;9.952;2022-09-27T09:01:50;0.70;;;0.70;;
13704;SDS011;6924;52.122;9.952;2022-09-27T09:04:20;0.90;;;0.80;;
13704;SDS011;6924;52.122;9.952;2022-09-27T09:06:54;0.87;;;0.60;;
13704;SDS011;6924;52.122;9.952;2022-09-27T09:09:30;1.27;;;0.67;;
13704;SDS011;6924;52.122;9.952;2022-09-27T09:12:07;1.17;;;0.53;;
13704;SDS011;6924;52.122;9.952;2022-09-27T09:15:10;1.23;;;0.50;;
13704;SDS011;6924;52.122;9.952;2022-09-27T09:17:48;0.90;;;0.60;;
13704;SDS011;6924;52.122;9.952;2022-09-27T09:20:29;1.50;;;0.80;;
13704;SDS011;6924;52.122;9.952;2022-09-27T09:25:59;1.07;;;0.60;;
13704;SDS011;6924;52.122;9.952;2022-09-27T09:28:38;1.33;;;0.57;;
13704;SDS011;6924;52.122;9.952;2022-09-27T09:31:22;1.43;;;0.40;;
13704;SDS011;6924;52.122;9.952;2022-09-27T09:33:56;0.50;;;0.40;;
13704;SDS011;6924;52.122;9.952;2022-09-27T09:36:30;0.60;;;0.30;;
13704;SDS011;6924;52.122;9.952;2022-09-27T09:39:03;0.57;;;0.47;;
13704;SDS011;6924;52.122;9.952;2022-09-27T09:41:35;0.23;;;0.23;;
13704;SDS011;6924;52.122;9.952;2022-09-27T09:44:09;0.60;;;0.30;;
13704;SDS011;6924;52.122;9.952;2022-09-27T09:46:45;1.03;;;0.40;;
13704;SDS011;6924;52.122;9.952;2022-09-27T09:49:17;0.87;;;0.40;;
13704;SDS011;6924;52.122;9.952;2022-09-27T09:51:47;0.27;;;0.27;;
13704;SDS011;6924;52.122;9.952;2022-09-27T09:54:21;0.67;;;0.30;;
13704;SDS011;6924;52.122;9.952;2022-09-27T09:56:54;1.23;;;0.87;;
13704;SDS011;6924;52.122;9.952;2022-09-27T09:59:29;0.50;;;0.30;;
13704;SDS011;6924;52.122;9.952;2022-09-27T10:02:06;1.53;;;0.30;;
13704;SDS011;6924;52.122;9.952;2022-09-27T10:04:44;0.77;;;0.20;;
13704;SDS011;6924;52.122;9.952;2022-09-27T10:07:10;0.33;;;0.30;;
13704;SDS011;6924;52.122;9.952;2022-09-27T10:09:37;0.40;;;0.20;;
13704;SDS011;6924;52.122;9.952;2022-09-27T10:12:04;0.57;;;0.20;;
13704;SDS011;6924;52.122;9.952;2022-09-27T10:14:31;0.20;;;0.20;;
13704;SDS011;6924;52.122;9.952;2022-09-27T10:16:58;0.53;;;0.30;;
13704;SDS011;6924;52.122;9.952;2022-09-27T10:19:28;0.40;;;0.30;;
13704;SDS011;6924;52.122;9.952;2022-09-27T10:21:57;1.43;;;0.30;;
13704;SDS011;6924;52.122;9.952;2022-09-27T10:24:26;0.87;;;0.27;;
13704;SDS011;6924;52.122;9.952;2022-09-27T10:26:56;4.17;;;0.40;;
13704;SDS011;6924;52.122;9.952;2022-09-27T10:29:28;0.83;;;0.27;;
13704;SDS011;6924;52.122;9.952;2022-09-27T10:31:56;0.90;;;0.20;;
13704;SDS011;6924;52.122;9.952;2022-09-27T10:34:26;0.30;;;0.20;;
13704;SDS011;6924;52.122;9.952;2022-09-27T10:37:00;0.83;;;0.27;;
13704;SDS011;6924;52.122;9.952;2022-09-27T10:39:31;1.07;;;0.60;;
13704;SDS011;6924;52.122;9.952;2022-09-27T10:41:59;0.33;;;0.30;;
13704;SDS011;6924;52.122;9.952;2022-09-27T10:44:26;0.73;;;0.30;;
13704;SDS011;6924;52.122;9.952;2022-09-27T10:46:54;0.67;;;0.23;;
13704;SDS011;6924;52.122;9.952;2022-09-27T10:49:24;0.90;;;0.20;;
13704;SDS011;6924;52.122;9.952;2022-09-27T10:51:54;4.53;;;0.30;;
13704;SDS011;6924;52.122;9.952;2022-09-27T10:54:24;0.60;;;0.20;;
13704;SDS011;6924;52.122;9.952;2022-09-27T10:56:53;0.67;;;0.40;;
13704;SDS011;6924;52.122;9.952;2022-09-27T10:59:22;0.60;;;0.20;;
13704;SDS011;6924;52.122;9.952;2022-09-27T11:01:49;0.87;;;0.30;;
13704;SDS011;6924;52.122;9.952;2022-09-27T11:04:18;1.07;;;0.30;;
13704;SDS011;6924;52.122;9.952;2022-09-27T11:06:48;0.50;;;0.40;;
13704;SDS011;6924;52.122;9.952;2022-09-27T11:09:17;0.70;;;0.70;;
13704;SDS011;6924;52.122;9.952;2022-09-27T11:11:48;0.20;;;0.17;;
13704;SDS011;6924;52.122;9.952;2022-09-27T11:14:19;1.03;;;0.40;;
13704;SDS011;6924;52.122;9.952;2022-09-27T11:16:49;0.40;;;0.40;;
13704;SDS011;6924;52.122;9.952;2022-09-27T11:19:32;0.73;;;0.30;;
13704;SDS011;6924;52.122;9.952;2022-09-27T11:22:06;1.13;;;0.40;;
13704;SDS011;6924;52.122;9.952;2022-09-27T11:24:49;1.50;;;0.30;;
13704;SDS011;6924;52.122;9.952;2022-09-27T11:27:28;0.67;;;0.50;;
13704;SDS011;6924;52.122;9.952;2022-09-27T11:30:06;0.30;;;0.30;;
13704;SDS011;6924;52.122;9.952;2022-09-27T11:32:38;0.30;;;0.20;;
13704;SDS011;6924;52.122;9.952;2022-09-27T11:35:19;1.93;;;0.30;;
13704;SDS011;6924;52.122;9.952;2022-09-27T11:38:00;0.57;;;0.20;;
13704;SDS011;6924;52.122;9.952;2022-09-27T11:40:46;0.60;;;0.50;;
13704;SDS011;6924;52.122;9.952;2022-09-27T11:43:31;0.30;;;0.30;;
13704;SDS011;6924;52.122;9.952;2022-09-27T11:46:14;1.17;;;0.50;;
13704;SDS011;6924;52.122;9.952;2022-09-27T11:48:53;1.37;;;0.47;;
13704;SDS011;6924;52.122;9.952;2022-09-27T11:51:38;0.70;;;0.20;;
13704;SDS011;6924;52.122;9.952;2022-09-27T11:54:24;0.27;;;0.17;;
13704;SDS011;6924;52.122;9.952;2022-09-27T11:57:05;0.00;;;0.00;;
13704;SDS011;6924;52.122;9.952;2022-09-27T11:59:57;0.20;;;0.10;;
13704;SDS011;6924;52.122;9.952;2022-09-27T12:02:41;1.10;;;1.00;;
13704;SDS011;6924;52.122;9.952;2022-09-27T12:05:22;0.10;;;0.10;;
13704;SDS011;6924;52.122;9.952;2022-09-27T12:07:56;0.27;;;0.10;;
13704;SDS011;6924;52.122;9.952;2022-09-27T12:10:34;0.40;;;0.10;;
13704;SDS011;6924;52.122;9.952;2022-09-27T12:13:04;1.40;;;0.10;;
13704;SDS011;6924;52.122;9.952;2022-09-27T12:15:34;0.10;;;0.10;;
13704;SDS011;6924;52.122;9.952;2022-09-27T12:18:08;0.20;;;0.10;;
13704;SDS011;6924;52.122;9.952;2022-09-27T12:20:37;0.10;;;0.10;;
13704;SDS011;6924;52.122;9.952;2022-09-27T12:23:09;1.23;;;0.20;;
13704;SDS011;6924;52.122;9.952;2022-09-27T12:25:40;0.63;;;0.20;;
13704;SDS011;6924;52.122;9.952;2022-09-27T12:28:11;1.33;;;0.50;;
13704;SDS011;6924;52.122;9.952;2022-09-27T12:30:44;0.93;;;0.20;;
13704;SDS011;6924;52.122;9.952;2022-09-27T12:33:16;1.03;;;0.20;;
13704;SDS011;6924;52.122;9.952;2022-09-27T12:35:51;0.30;;;0.30;;
13704;SDS011;6924;52.122;9.952;2022-09-27T12:38:20;0.83;;;0.20;;
13704;SDS011;6924;52.122;9.952;2022-09-27T12:40:52;1.07;;;0.10;;
13704;SDS011;6924;52.122;9.952;2022-09-27T12:43:25;0.10;;;0.10;;
13704;SDS011;6924;52.122;9.952;2022-09-27T12:45:53;0.00;;;0.00;;
13704;SDS011;6924;52.122;9.952;2022-09-27T12:48:31;0.97;;;0.20;;
13704;SDS011;6924;52.122;9.952;2022-09-27T12:51:05;0.60;;;0.10;;
13704;SDS011;6924;52.122;9.952;2022-09-27T12:53:38;0.10;;;0.00;;
13704;SDS011;6924;52.122;9.952;2022-09-27T12:56:18;0.00;;;0.00;;
13704;SDS011;6924;52.122;9.952;2022-09-27T13:01:56;0.10;;;0.10;;
13704;SDS011;6924;52.122;9.952;2022-09-27T13:04:56;0.23;;;0.10;;
13704;SDS011;6924;52.122;9.952;2022-09-27T13:07:35;0.10;;;0.10;;
13704;SDS011;6924;52.122;9.952;2022-09-27T13:10:17;0.20;;;0.17;;
13704;SDS011;6924;52.122;9.952;2022-09-27T13:13:01;0.00;;;0.00;;
13704;SDS011;6924;52.122;9.952;2022-09-27T13:15:32;0.77;;;0.50;;
13704;SDS011;6924;52.122;9.952;2022-09-27T13:18:00;0.80;;;0.20;;
13704;SDS011;6924;52.122;9.952;2022-09-27T13:20:39;0.40;;;0.27;;
13704;SDS011;6924;52.122;9.952;2022-09-27T13:26:45;0.30;;;0.30;;
13704;SDS011;6924;52.122;9.952;2022-09-27T13:29:21;0.23;;;0.20;;
13704;SDS011;6924;52.122;9.952;2022-09-27T13:32:12;0.20;;;0.20;;
13704;SDS011;6924;52.122;9.952;2022-09-27T13:34:47;0.53;;;0.40;;
13704;SDS011;6924;52.122;9.952;2022-09-27T13:37:36;0.20;;;0.20;;
13704;SDS011;6924;52.122;9.952;2022-09-27T13:40:23;0.77;;;0.70;;
13704;SDS011;6924;52.122;9.952;2022-09-27T13:43:02;0.40;;;0.30;;
13704;SDS011;6924;52.122;9.952;2022-09-27T13:45:47;0.87;;;0.50;;
13704;SDS011;6924;52.122;9.952;2022-09-27T13:48:21;0.43;;;0.43;;
13704;SDS011;6924;52.122;9.952;2022-09-27T13:50:52;1.80;;;0.73;;
13704;SDS011;6924;52.122;9.952;2022-09-27T13:53:24;0.63;;;0.60;;
13704;SDS011;6924;52.122;9.952;2022-09-27T13:55:55;0.77;;;0.77;;
13704;SDS011;6924;52.122;9.952;2022-09-27T14:01:24;1.10;;;0.97;;
13704;SDS011;6924;52.122;9.952;2022-09-27T14:03:55;1.20;;;1.10;;
13704;SDS011;6924;52.122;9.952;2022-09-27T14:06:28;1.30;;;1.20;;
13704;SDS011;6924;52.122;9.952;2022-09-27T14:08:59;0.50;;;0.50;;
13704;SDS011;6924;52.122;9.952;2022-09-27T14:11:29;0.30;;;0.10;;
13704;SDS011;6924;52.122;9.952;2022-09-27T14:13:59;0.00;;;0.00;;
13704;SDS011;6924;52.122;9.952;2022-09-27T14:16:29;0.53;;;0.20;;
13704;SDS011;6924;52.122;9.952;2022-09-27T14:19:00;1.33;;;0.27;;
13704;SDS011;6924;52.122;9.952;2022-09-27T14:21:28;0.27;;;0.20;;
13704;SDS011;6924;52.122;9.952;2022-09-27T14:27:01;0.40;;;0.20;;
13704;SDS011;6924;52.122;9.952;2022-09-27T14:29:30;0.93;;;0.27;;
13704;SDS011;6924;52.122;9.952;2022-09-27T14:32:05;0.40;;;0.40;;
13704;SDS011;6924;52.122;9.952;2022-09-27T14:34:36;0.70;;;0.30;;
13704;SDS011;6924;52.122;9.952;2022-09-27T14:37:03;1.43;;;0.40;;
13704;SDS011;6924;52.122;9.952;2022-09-27T14:39:52;0.37;;;0.30;;
13704;SDS011;6924;52.122;9.952;2022-09-27T14:42:19;0.30;;;0.20;;
13704;SDS011;6924;52.122;9.952;2022-09-27T14:44:49;1.07;;;0.30;;
13704;SDS011;6924;52.122;9.952;2022-09-27T14:47:18;0.90;;;0.37;;
13704;SDS011;6924;52.122;9.952;2022-09-27T14:49:49;0.20;;;0.20;;
13704;SDS011;6924;52.122;9.952;2022-09-27T14:52:17;1.47;;;0.40;;
13704;SDS011;6924;52.122;9.952;2022-09-27T14:54:55;0.77;;;0.50;;
13704;SDS011;6924;52.122;9.952;2022-09-27T14:57:23;0.33;;;0.33;;
13704;SDS011;6924;52.122;9.952;2022-09-27T14:59:51;1.70;;;0.47;;
13704;SDS011;6924;52.122;9.952;2022-09-27T15:02:18;0.73;;;0.50;;
13704;SDS011;6924;52.122;9.952;2022-09-27T15:04:48;0.80;;;0.23;;
13704;SDS011;6924;52.122;9.952;2022-09-27T15:07:16;0.90;;;0.40;;
13704;SDS011;6924;52.122;9.952;2022-09-27T15:09:43;1.90;;;0.47;;
13704;SDS011;6924;52.122;9.952;2022-09-27T15:12:11;0.63;;;0.40;;
13704;SDS011;6924;52.122;9.952;2022-09-27T15:14:41;1.37;;;0.73;;
13704;SDS011;6924;52.122;9.952;2022-09-27T15:17:13;1.83;;;0.70;;
13704;SDS011;6924;52.122;9.952;2022-09-27T15:19:55;1.87;;;0.97;;
13704;SDS011;6924;52.122;9.952;2022-09-27T15:22:30;0.80;;;0.80;;
13704;SDS011;6924;52.122;9.952;2022-09-27T15:25:03;0.97;;;0.97;;
13704;SDS011;6924;52.122;9.952;2022-09-27T15:27:31;1.67;;;1.57;;
13704;SDS011;6924;52.122;9.952;2022-09-27T15:29:58;1.90;;;1.80;;
13704;SDS011;6924;52.122;9.952;2022-09-27T15:32:25;1.60;;;1.50;;
13704;SDS011;6924;52.122;9.952;2022-09-27T15:34:53;1.60;;;1.53;;
13704;SDS011;6924;52.122;9.952;2022-09-27T15:37:26;1.63;;;1.53;;
13704;SDS011;6924;52.122;9.952;2022-09-27T15:40:00;1.50;;;1.40;;